Terminal Aerodrome Forecast
Issued by NWS Wakefield, VA

Home | Current Version | Previous Version | Text Only | Print | Product List | Glossary On
Versions: 1 2 3 4 5 6 7 8 9 10 11 12 13 14
000
FTUS41 KAKQ 272300
TAFSBY
TAF
KSBY 272339Z 2800/2824 22006KT P6SM SCT150
     FM280800 24005KT 4SM BR SCT050 BKN250
     FM281100 24010G18KT P6SM VCSH BKN100 OVC250
     FM281400 25012G20KT 5SM SHRA BKN040 OVC080
     FM281900 29016G28KT P6SM SCT050 SCT100 BKN250=

USA.gov is the U.S. government's official web portal to all federal, state and local government web resources and services.